Historique des mesures à Cassis (13260), France
Quotidien Résumé Décembre 14, 2017 Unités:  Métrique    US   Métrique/US
« Précédent (Jour)
Suivant (Jour) »
Quotidien Hebdomadaire Mensuel Annuel Période au choix
  Maximum: Minimum: Moyenne:
Température: TemperatureC °C 8.3 °C 11.1 °C
Point de rosée: DewpointC °C 5.6 °C 7.8 °C
Humidité: Humidity % 67 % 76 %
Vitesse du vent: 0 km/h 0 km/h 0.6 km/h
Rafales: 0 km/h - -
Vent:- - South
Pression: PressurehPa hPa 1006.0 hPa -
Précipitations: 0.0 mm    
Historical Graphs
 
 
Mesures pour : Décembre 14, 2017
Heure Temperature Point de rosée Pression Vent Vitesse du vent Rafales Humidité Pluie (par heure) Conditions
TemperatureC °C DewpointC °C PressurehPa hPa Calm     Humidity % HourlyPrecipMM mm SoftwareType W/m2
00:11 8.3 °C 5.6 °C 1013.8 hPa Calm     83 % 0.0 mm open2300-1.11 W/m2
01:10 8.8 °C 6.2 °C 1012.8 hPa Calm     84 % 0.0 mm open2300-1.11 W/m2
02:10 9.1 °C 6.5 °C 1012.4 hPa Calm     84 % 0.0 mm open2300-1.11 W/m2
06:10 11.3 °C 8.8 °C 1010.4 hPa Calm     85 % 0.0 mm open2300-1.11 W/m2
07:10 11.0 °C 8.7 °C 1010.4 hPa Calm     86 % 0.0 mm open2300-1.11 W/m2
08:10 10.8 °C 8.5 °C 1010.7 hPa Calm     86 % 0.0 mm open2300-1.11 W/m2
09:10 10.6 °C 8.2 °C 1011.4 hPa Calm     85 % 0.0 mm open2300-1.11 W/m2
10:10 10.5 °C 8.1 °C 1011.7 hPa Calm     85 % 0.0 mm open2300-1.11 W/m2
11:10 11.5 °C 9.1 °C 1011.1 hPa Calm     85 % 0.0 mm open2300-1.11 W/m2
12:11 12.5 °C 9.7 °C 1010.4 hPa Calm     83 % 0.0 mm open2300-1.11 W/m2
13:10 13.1 °C 8.9 °C 1009.0 hPa Calm     76 % 0.0 mm open2300-1.11 W/m2
14:10 13.3 °C 8.3 °C 1008.4 hPa Calm   6.4 km/h 72 % 0.0 mm open2300-1.11 W/m2
15:10 13.4 °C 7.4 °C 1008.7 hPa Calm   12.2 km/h 67 % 0.0 mm open2300-1.11 W/m2
16:10 13.0 °C 7.7 °C 1008.7 hPa Calm     70 % 0.0 mm open2300-1.11 W/m2
17:10 12.2 °C 7.7 °C 1008.4 hPa Calm     74 % 0.0 mm open2300-1.11 W/m2
18:10 12.4 °C 8.4 °C 1008.0 hPa South 15.6 km/h 15.6 km/h 77 % 0.0 mm open2300-1.11 W/m2
19:10 12.5 °C 8.6 °C 1007.7 hPa Calm   2.9 km/h 77 % 0.0 mm open2300-1.11 W/m2
20:10 12.2 °C 8.5 °C 1007.7 hPa Calm     78 % 0.0 mm open2300-1.11 W/m2
21:10 12.3 °C 9.0 °C 1007.0 hPa Calm     80 % 0.0 mm open2300-1.11 W/m2
22:10 12.4 °C 9.2 °C 1006.7 hPa Calm     81 % 0.0 mm open2300-1.11 W/m2
23:10 12.9 °C 8.9 °C 1006.0 hPa Calm     77 % 0.0 mm open2300-1.11 W/m2
Observations météo à CASSIS
WU-History script by Weather Underground - 1 mb